createdAt,value
2019-05-01T00:01:13.282Z,9.50
2019-05-01T00:03:44.595Z,9.50
2019-05-01T00:06:16.072Z,9.50
2019-05-01T00:08:45.801Z,9.50
2019-05-01T00:11:16.950Z,9.50
2019-05-01T00:13:46.584Z,9.60
2019-05-01T00:16:16.444Z,9.50
2019-05-01T00:18:46.110Z,9.50
2019-05-01T00:21:15.841Z,9.40
2019-05-01T00:23:45.449Z,9.40
2019-05-01T00:26:15.176Z,9.40
2019-05-01T00:28:44.870Z,9.40
2019-05-01T00:31:14.624Z,9.40
2019-05-01T00:33:44.290Z,9.30
2019-05-01T00:36:14.197Z,9.30
2019-05-01T00:38:43.855Z,9.30
2019-05-01T00:41:13.433Z,9.20
2019-05-01T00:43:43.220Z,9.20
2019-05-01T00:46:13.073Z,9.10
2019-05-01T00:48:42.690Z,9.20
2019-05-01T00:51:12.392Z,9.20
2019-05-01T00:53:42.030Z,9.30
2019-05-01T00:56:22.218Z,9.40
2019-05-01T00:58:53.631Z,9.30
2019-05-01T01:01:25.779Z,9.20
2019-05-01T01:03:55.464Z,9.20
2019-05-01T01:06:25.161Z,9.20
2019-05-01T01:08:54.943Z,9.20
2019-05-01T01:11:24.617Z,9.10
2019-05-01T01:13:54.262Z,9.10
2019-05-01T01:16:23.983Z,9.10
2019-05-01T01:18:53.673Z,9.10
2019-05-01T01:21:23.508Z,9.10
2019-05-01T01:23:53.161Z,9.10
2019-05-01T01:26:22.876Z,9.10
2019-05-01T01:28:52.662Z,9.00
2019-05-01T01:31:22.448Z,8.90
2019-05-01T01:33:52.119Z,8.90
2019-05-01T01:36:21.724Z,8.90
2019-05-01T01:38:51.314Z,8.90
2019-05-01T01:41:21.161Z,9.00
2019-05-01T01:43:59.559Z,9.00
2019-05-01T01:46:33.565Z,8.90
2019-05-01T01:49:03.403Z,8.90
2019-05-01T01:51:33.143Z,8.90
2019-05-01T01:54:03.269Z,8.80
2019-05-01T01:56:33.006Z,8.70
2019-05-01T01:59:02.693Z,8.70
2019-05-01T02:01:42.760Z,8.60
2019-05-01T02:04:18.205Z,8.50
2019-05-01T02:06:49.762Z,8.50
2019-05-01T02:09:19.572Z,8.60
2019-05-01T02:11:50.319Z,8.60
2019-05-01T02:14:20.410Z,8.60
2019-05-01T02:16:50.201Z,8.60
2019-05-01T02:19:19.785Z,8.50
2019-05-01T02:21:49.694Z,8.60
2019-05-01T02:24:19.256Z,8.50
2019-05-01T02:26:56.399Z,8.40
2019-05-01T02:29:41.891Z,8.50
2019-05-01T02:32:11.787Z,8.50
2019-05-01T02:34:42.739Z,8.50
2019-05-01T02:37:13.696Z,8.50
2019-05-01T02:39:45.009Z,8.40
2019-05-01T02:42:15.735Z,8.30
2019-05-01T02:44:48.936Z,8.30
2019-05-01T02:47:27.531Z,8.30
2019-05-01T02:50:07.595Z,8.30
2019-05-01T02:52:38.448Z,8.40
2019-05-01T02:55:11.985Z,8.30
2019-05-01T02:57:42.528Z,8.30
2019-05-01T03:00:12.706Z,8.30
2019-05-01T03:02:42.956Z,8.30
2019-05-01T03:05:12.864Z,8.30
2019-05-01T03:07:43.295Z,8.20
2019-05-01T03:10:13.409Z,8.20
2019-05-01T03:12:46.611Z,8.30
2019-05-01T03:15:17.715Z,8.10
2019-05-01T03:17:50.196Z,8.20
2019-05-01T03:20:27.733Z,8.20
2019-05-01T03:23:15.539Z,8.20
2019-05-01T03:25:45.139Z,8.10
2019-05-01T03:28:15.157Z,8.00
2019-05-01T03:30:44.966Z,8.10
2019-05-01T03:33:15.074Z,8.00
2019-05-01T03:35:44.907Z,7.90
2019-05-01T03:38:14.973Z,7.80
2019-05-01T03:40:44.654Z,7.80
2019-05-01T03:43:14.416Z,7.80
2019-05-01T03:45:45.140Z,7.80
2019-05-01T03:48:14.889Z,7.80
2019-05-01T03:50:47.117Z,7.70
2019-05-01T03:53:16.338Z,7.60
2019-05-01T03:55:46.890Z,7.60
2019-05-01T03:58:16.623Z,7.70
2019-05-01T04:00:46.389Z,7.70
2019-05-01T04:03:30.242Z,7.60
2019-05-01T04:06:00.212Z,7.60
2019-05-01T04:08:30.048Z,7.60
2019-05-01T04:10:59.921Z,7.60
2019-05-01T04:13:29.637Z,7.50
2019-05-01T04:15:59.592Z,7.40
2019-05-01T04:18:29.758Z,7.50
2019-05-01T04:21:00.006Z,7.40
2019-05-01T04:23:29.934Z,7.50
2019-05-01T04:25:59.578Z,7.50
2019-05-01T04:28:40.529Z,7.60
2019-05-01T04:31:13.028Z,7.70
2019-05-01T04:33:44.502Z,7.70
2019-05-01T04:36:19.401Z,7.50
2019-05-01T04:38:49.429Z,7.60
2019-05-01T04:41:19.627Z,7.60
2019-05-01T04:43:49.371Z,7.60
2019-05-01T04:46:19.483Z,7.60
2019-05-01T04:48:49.688Z,7.60
2019-05-01T04:51:19.925Z,7.70
2019-05-01T04:53:49.591Z,7.70
2019-05-01T04:56:19.567Z,7.60
2019-05-01T04:58:49.509Z,7.60
2019-05-01T05:01:19.372Z,7.60
2019-05-01T05:03:49.044Z,7.60
2019-05-01T05:06:19.091Z,7.60
2019-05-01T05:08:49.096Z,7.70
2019-05-01T05:11:20.468Z,7.70
2019-05-01T05:14:07.770Z,7.70
2019-05-01T05:16:45.007Z,7.80
2019-05-01T05:19:15.423Z,7.90
2019-05-01T05:21:45.292Z,7.90
2019-05-01T05:24:17.441Z,8.10
2019-05-01T05:26:47.627Z,8.20
2019-05-01T05:29:19.830Z,8.10
2019-05-01T05:31:50.472Z,8.00
2019-05-01T05:34:21.715Z,8.00
2019-05-01T05:36:54.219Z,8.10
2019-05-01T05:39:32.355Z,8.20
2019-05-01T05:42:04.858Z,8.10
2019-05-01T05:44:35.975Z,8.20
2019-05-01T05:47:06.104Z,8.30
2019-05-01T05:49:35.923Z,8.20
2019-05-01T05:52:23.247Z,8.10
2019-05-01T05:54:57.822Z,8.20
2019-05-01T05:57:33.873Z,8.10
2019-05-01T06:00:21.428Z,8.20
2019-05-01T06:02:57.661Z,8.10
2019-05-01T06:05:35.015Z,8.10
2019-05-01T06:08:10.729Z,8.20
2019-05-01T06:11:03.315Z,8.20
2019-05-01T06:13:52.614Z,8.30
2019-05-01T06:16:23.277Z,8.40
2019-05-01T06:18:54.778Z,8.30
2019-05-01T06:21:26.097Z,8.30
2019-05-01T06:24:05.951Z,8.40
2019-05-01T06:26:31.964Z,8.50
2019-05-01T06:29:04.530Z,8.60
2019-05-01T06:31:35.242Z,8.60
2019-05-01T06:34:05.598Z,8.60
2019-05-01T06:36:35.516Z,8.70
2019-05-01T06:39:11.818Z,8.90
2019-05-01T06:41:42.850Z,9.00
2019-05-01T06:44:20.757Z,9.90
2019-05-01T06:46:52.640Z,9.90
2019-05-01T06:49:24.197Z,9.70
2019-05-01T06:51:58.120Z,9.70
2019-05-01T06:54:30.374Z,9.70
2019-05-01T06:57:01.875Z,9.50
2019-05-01T06:59:33.414Z,9.60
2019-05-01T07:02:04.150Z,9.80
2019-05-01T07:04:38.122Z,9.60
2019-05-01T07:07:08.233Z,9.70
2019-05-01T07:09:38.950Z,10.60
2019-05-01T07:12:10.482Z,12.30
2019-05-01T07:14:40.111Z,12.40
2019-05-01T07:17:13.556Z,12.10
2019-05-01T07:19:55.248Z,11.70
2019-05-01T07:22:24.968Z,12.40
2019-05-01T07:24:58.945Z,12.40
2019-05-01T07:27:26.817Z,12.40
2019-05-01T07:30:01.005Z,14.00
2019-05-01T07:32:31.052Z,14.10
2019-05-01T07:35:01.908Z,14.20
2019-05-01T07:37:32.662Z,13.10
2019-05-01T07:40:02.464Z,12.40
2019-05-01T07:42:33.821Z,13.50
2019-05-01T07:45:13.809Z,13.50
2019-05-01T07:47:45.632Z,12.80
2019-05-01T07:50:17.690Z,12.90
2019-05-01T07:52:52.186Z,12.80
2019-05-01T07:55:22.026Z,13.00
2019-05-01T07:57:51.718Z,12.60
2019-05-01T08:00:42.666Z,12.50
2019-05-01T08:03:12.402Z,13.20
2019-05-01T08:05:45.440Z,12.50
2019-05-01T08:08:13.779Z,12.40
2019-05-01T08:10:43.487Z,12.80
2019-05-01T08:13:13.141Z,12.90
2019-05-01T08:15:42.999Z,13.30
2019-05-01T08:18:14.304Z,12.80
2019-05-01T08:20:50.438Z,12.50
2019-05-01T08:23:19.823Z,12.30
2019-05-01T08:25:49.543Z,12.50
2019-05-01T08:28:27.764Z,12.70
2019-05-01T08:30:56.844Z,12.80
2019-05-01T08:33:44.827Z,12.80
2019-05-01T08:36:15.811Z,12.70
2019-05-01T08:38:45.424Z,12.90
2019-05-01T08:41:15.146Z,12.60
2019-05-01T08:43:48.902Z,12.50
2019-05-01T08:46:25.577Z,12.70
2019-05-01T08:49:06.861Z,12.70
2019-05-01T08:51:37.529Z,12.80
2019-05-01T08:54:07.285Z,13.00
2019-05-01T08:56:36.907Z,12.80
2019-05-01T08:59:06.820Z,12.90
2019-05-01T09:01:36.569Z,12.70
2019-05-01T09:04:12.806Z,12.60
2019-05-01T09:06:39.364Z,12.60
2019-05-01T09:09:10.145Z,12.70
2019-05-01T09:11:39.920Z,12.50
2019-05-01T09:14:09.651Z,12.90
2019-05-01T09:16:39.366Z,13.30
2019-05-01T09:19:09.136Z,13.10
2019-05-01T09:21:39.528Z,13.10
2019-05-01T09:24:09.367Z,13.30
2019-05-01T09:26:55.826Z,13.00
2019-05-01T09:29:29.921Z,13.10
2019-05-01T09:31:59.694Z,13.10
2019-05-01T09:34:29.572Z,13.20
2019-05-01T09:36:59.418Z,13.30
2019-05-01T09:39:29.731Z,13.00
2019-05-01T09:41:59.499Z,13.10
2019-05-01T09:44:29.249Z,13.20
2019-05-01T09:46:59.318Z,13.10
2019-05-01T09:49:29.530Z,13.00
2019-05-01T09:52:00.768Z,13.10
2019-05-01T09:54:43.035Z,13.00
2019-05-01T09:57:10.871Z,13.20
2019-05-01T09:59:40.926Z,12.90
2019-05-01T10:02:11.271Z,12.90
2019-05-01T10:04:41.071Z,12.80
2019-05-01T10:07:10.861Z,13.00
2019-05-01T10:09:40.747Z,13.60
2019-05-01T10:12:12.113Z,14.30
2019-05-01T10:14:41.802Z,14.50
2019-05-01T10:17:13.497Z,13.80
2019-05-01T10:19:43.105Z,14.20
2019-05-01T10:22:12.699Z,14.70
2019-05-01T10:24:42.418Z,14.70
2019-05-01T10:27:13.722Z,14.50
2019-05-01T10:30:02.812Z,14.60
2019-05-01T10:32:52.799Z,15.00
2019-05-01T10:35:42.439Z,15.40
2019-05-01T10:38:09.360Z,15.10
2019-05-01T10:40:37.263Z,15.30
2019-05-01T10:43:07.089Z,15.00
2019-05-01T10:45:36.850Z,15.50
2019-05-01T10:48:06.623Z,15.60
2019-05-01T10:50:36.243Z,15.40
2019-05-01T10:53:05.891Z,15.20
2019-05-01T10:55:35.647Z,15.20
2019-05-01T10:58:05.330Z,15.40
2019-05-01T11:00:36.669Z,14.90
2019-05-01T11:03:06.565Z,15.40
2019-05-01T11:05:36.244Z,15.30
2019-05-01T11:08:06.492Z,15.10
2019-05-01T11:10:36.178Z,14.60
2019-05-01T11:13:07.748Z,14.50
2019-05-01T11:15:37.553Z,14.60
2019-05-01T11:18:07.292Z,14.50
2019-05-01T11:20:36.932Z,14.30
2019-05-01T11:23:07.147Z,14.50
2019-05-01T11:25:38.465Z,14.60
2019-05-01T11:28:08.259Z,14.60
2019-05-01T11:30:38.285Z,14.60
2019-05-01T11:33:18.405Z,14.40
2019-05-01T11:36:09.569Z,14.50
2019-05-01T11:38:42.809Z,14.80
2019-05-01T11:41:14.150Z,14.90
2019-05-01T11:43:43.971Z,14.90
2019-05-01T11:46:13.758Z,14.70
2019-05-01T11:48:44.655Z,14.90
2019-05-01T11:51:14.724Z,15.00
2019-05-01T11:53:44.344Z,15.10
2019-05-01T11:56:14.153Z,15.10
2019-05-01T11:58:43.769Z,15.00
2019-05-01T12:01:15.209Z,15.20
2019-05-01T12:03:44.930Z,15.20
2019-05-01T12:06:22.605Z,15.30
2019-05-01T12:08:46.261Z,15.30
2019-05-01T12:11:17.575Z,15.30
2019-05-01T12:13:47.417Z,15.50
2019-05-01T12:16:33.553Z,15.60
2019-05-01T12:19:05.297Z,15.70
2019-05-01T12:21:34.952Z,15.60
2019-05-01T12:24:04.864Z,15.50
2019-05-01T12:26:34.422Z,15.60
2019-05-01T12:29:04.249Z,15.60
2019-05-01T12:31:33.817Z,15.70
2019-05-01T12:34:03.577Z,15.80
2019-05-01T12:36:36.563Z,15.70
2019-05-01T12:39:08.937Z,16.00
2019-05-01T12:41:43.348Z,15.70
2019-05-01T12:44:13.303Z,15.90
2019-05-01T12:46:42.846Z,15.70
2019-05-01T12:49:15.770Z,15.80
2019-05-01T12:51:46.516Z,15.90
2019-05-01T12:54:26.775Z,16.30
2019-05-01T12:57:03.142Z,16.40
2019-05-01T12:59:32.848Z,16.10
2019-05-01T13:02:02.446Z,16.30
2019-05-01T13:04:32.551Z,16.40
2019-05-01T13:07:02.495Z,16.70
2019-05-01T13:09:32.159Z,16.70
2019-05-01T13:12:02.172Z,16.60
2019-05-01T13:14:31.991Z,16.70
2019-05-01T13:17:01.669Z,16.20
2019-05-01T13:19:31.382Z,16.50
2019-05-01T13:22:01.093Z,16.90
2019-05-01T13:24:30.764Z,17.20
2019-05-01T13:27:07.923Z,17.10
2019-05-01T13:29:39.243Z,17.00
2019-05-01T13:32:17.353Z,16.90
2019-05-01T13:34:47.148Z,16.60
2019-05-01T13:37:16.832Z,16.30
2019-05-01T13:39:46.592Z,16.20
2019-05-01T13:42:16.273Z,16.40
2019-05-01T13:44:46.384Z,16.50
2019-05-01T13:47:16.243Z,16.70
2019-05-01T13:49:45.913Z,16.80
2019-05-01T13:52:15.608Z,16.90
2019-05-01T13:54:45.170Z,16.80
2019-05-01T13:57:14.997Z,16.40
2019-05-01T13:59:44.794Z,16.70
2019-05-01T14:02:14.583Z,16.80
2019-05-01T14:04:44.146Z,16.80
2019-05-01T14:07:16.737Z,16.60
2019-05-01T14:09:45.969Z,16.50
2019-05-01T14:12:15.666Z,16.50
2019-05-01T14:14:45.449Z,16.50
2019-05-01T14:17:15.160Z,16.40
2019-05-01T14:19:46.984Z,16.60
2019-05-01T14:22:34.111Z,16.70
2019-05-01T14:25:11.523Z,17.20
2019-05-01T14:27:41.307Z,17.00
2019-05-01T14:30:11.604Z,17.00
2019-05-01T14:32:41.293Z,17.10
2019-05-01T14:35:12.839Z,16.70
2019-05-01T14:37:42.683Z,16.60
2019-05-01T14:40:12.981Z,16.60
2019-05-01T14:42:42.554Z,16.80
2019-05-01T14:45:12.685Z,17.00
2019-05-01T14:47:42.478Z,16.70
2019-05-01T14:50:12.582Z,16.60
2019-05-01T14:52:42.338Z,16.40
2019-05-01T14:55:12.453Z,16.30
2019-05-01T14:57:42.157Z,16.10
2019-05-01T15:00:12.884Z,16.30
2019-05-01T15:02:42.803Z,16.10
2019-05-01T15:05:14.244Z,16.20
2019-05-01T15:07:44.296Z,16.50
2019-05-01T15:10:14.167Z,16.40
2019-05-01T15:12:45.390Z,16.30
2019-05-01T15:15:22.808Z,16.20
2019-05-01T15:17:54.067Z,16.20
2019-05-01T15:20:23.874Z,16.00
2019-05-01T15:22:53.563Z,16.00
2019-05-01T15:25:23.247Z,16.10
2019-05-01T15:27:52.986Z,15.90
2019-05-01T15:30:23.097Z,15.80
2019-05-01T15:32:54.853Z,16.00
2019-05-01T15:35:24.423Z,15.90
2019-05-01T15:37:56.878Z,15.90
2019-05-01T15:40:30.133Z,16.10
2019-05-01T15:43:01.443Z,16.10
2019-05-01T15:45:31.232Z,16.20
2019-05-01T15:48:01.068Z,16.40
2019-05-01T15:50:30.928Z,16.40
2019-05-01T15:53:00.518Z,16.60
2019-05-01T15:55:30.371Z,16.40
2019-05-01T15:58:00.077Z,16.30
2019-05-01T16:00:29.902Z,16.20
2019-05-01T16:02:59.481Z,16.30
2019-05-01T16:05:29.353Z,16.30
2019-05-01T16:08:09.171Z,16.30
2019-05-01T16:10:47.137Z,16.40
2019-05-01T16:13:16.818Z,16.50
2019-05-01T16:15:46.656Z,16.50
2019-05-01T16:18:16.287Z,16.50
2019-05-01T16:20:46.003Z,16.40
2019-05-01T16:23:16.171Z,16.40
2019-05-01T16:25:45.984Z,16.50
2019-05-01T16:28:16.035Z,16.40
2019-05-01T16:30:45.880Z,16.40
2019-05-01T16:33:15.727Z,16.50
2019-05-01T16:35:45.781Z,16.70
2019-05-01T16:38:23.103Z,16.60
2019-05-01T16:40:59.232Z,16.40
2019-05-01T16:43:28.906Z,16.20
2019-05-01T16:45:59.713Z,16.20
2019-05-01T16:48:29.369Z,16.20
2019-05-01T16:50:59.019Z,16.20
2019-05-01T16:53:28.745Z,16.00
2019-05-01T16:55:58.514Z,16.00
2019-05-01T16:58:28.292Z,16.10
2019-05-01T17:01:04.951Z,15.90
2019-05-01T17:03:40.224Z,15.90
2019-05-01T17:06:18.396Z,15.80
2019-05-01T17:08:55.574Z,15.80
2019-05-01T17:11:27.052Z,15.80
2019-05-01T17:13:57.137Z,15.70
2019-05-01T17:16:26.922Z,15.70
2019-05-01T17:18:56.806Z,15.70
2019-05-01T17:21:27.073Z,15.80
2019-05-01T17:23:57.097Z,15.70
2019-05-01T17:26:26.807Z,15.60
2019-05-01T17:28:56.483Z,15.60
2019-05-01T17:31:27.771Z,15.40
2019-05-01T17:33:57.578Z,15.30
2019-05-01T17:36:27.408Z,15.20
2019-05-01T17:38:57.207Z,15.10
2019-05-01T17:41:28.501Z,15.10
2019-05-01T17:43:58.547Z,15.10
2019-05-01T17:46:28.211Z,15.10
2019-05-01T17:48:58.046Z,15.10
2019-05-01T17:51:27.736Z,15.00
2019-05-01T17:53:57.592Z,15.00
2019-05-01T17:56:28.692Z,14.90
2019-05-01T17:58:59.519Z,14.80
2019-05-01T18:01:46.975Z,14.70
2019-05-01T18:04:18.904Z,14.70
2019-05-01T18:06:50.363Z,14.60
2019-05-01T18:09:20.174Z,14.50
2019-05-01T18:11:52.379Z,14.50
2019-05-01T18:14:21.300Z,14.40
2019-05-01T18:16:51.392Z,14.30
2019-05-01T18:19:21.206Z,14.20
2019-05-01T18:21:55.325Z,14.00
2019-05-01T18:24:44.784Z,13.90
2019-05-01T18:27:32.563Z,13.80
2019-05-01T18:30:03.905Z,13.70
2019-05-01T18:32:46.527Z,13.60
2019-05-01T18:35:14.061Z,13.50
2019-05-01T18:37:46.502Z,13.40
2019-05-01T18:40:27.223Z,13.30
2019-05-01T18:42:56.994Z,13.30
2019-05-01T18:45:48.764Z,13.20
2019-05-01T18:48:19.565Z,13.10
2019-05-01T18:50:54.973Z,13.00
2019-05-01T18:53:21.868Z,12.90
2019-05-01T18:55:51.786Z,12.90
2019-05-01T18:58:22.105Z,12.80
2019-05-01T19:00:52.003Z,12.80
2019-05-01T19:03:22.596Z,12.70
2019-05-01T19:05:52.628Z,12.60
2019-05-01T19:08:22.783Z,12.50
2019-05-01T19:10:53.044Z,12.50
2019-05-01T19:13:23.281Z,12.40
2019-05-01T19:15:53.442Z,12.30
2019-05-01T19:18:23.609Z,12.30
2019-05-01T19:20:59.729Z,12.20
2019-05-01T19:23:28.057Z,12.20
2019-05-01T19:26:03.555Z,12.10
2019-05-01T19:28:28.423Z,12.00
2019-05-01T19:30:58.468Z,12.00
2019-05-01T19:33:28.331Z,11.90
2019-05-01T19:36:02.695Z,11.90
2019-05-01T19:38:34.922Z,11.90
2019-05-01T19:41:06.407Z,11.80
2019-05-01T19:43:35.752Z,11.80
2019-05-01T19:46:05.694Z,11.70
2019-05-01T19:48:35.512Z,11.70
2019-05-01T19:51:05.578Z,11.70
2019-05-01T19:53:35.313Z,11.60
2019-05-01T19:56:05.327Z,11.60
2019-05-01T19:58:35.227Z,11.50
2019-05-01T20:01:05.752Z,11.50
2019-05-01T20:03:36.862Z,11.40
2019-05-01T20:06:08.227Z,11.30
2019-05-01T20:08:38.259Z,11.30
2019-05-01T20:11:09.774Z,11.30
2019-05-01T20:13:39.636Z,11.20
2019-05-01T20:16:10.276Z,11.20
2019-05-01T20:18:40.013Z,11.10
2019-05-01T20:21:09.990Z,11.10
2019-05-01T20:23:39.848Z,11.10
2019-05-01T20:26:09.659Z,11.10
2019-05-01T20:28:39.854Z,11.10
2019-05-01T20:31:09.741Z,11.00
2019-05-01T20:33:44.194Z,11.00
2019-05-01T20:36:10.994Z,11.00
2019-05-01T20:38:40.731Z,11.00
2019-05-01T20:41:16.035Z,10.90
2019-05-01T20:43:43.611Z,10.90
2019-05-01T20:46:13.725Z,10.80
2019-05-01T20:48:43.436Z,10.90
2019-05-01T20:51:13.335Z,10.90
2019-05-01T20:53:42.990Z,10.80
2019-05-01T20:56:20.368Z,10.80
2019-05-01T20:58:50.008Z,10.70
2019-05-01T21:01:24.006Z,10.70
2019-05-01T21:03:56.222Z,10.60
2019-05-01T21:06:28.572Z,10.50
2019-05-01T21:09:00.065Z,10.50
2019-05-01T21:11:34.468Z,10.50
2019-05-01T21:14:19.717Z,10.40
2019-05-01T21:16:38.092Z,10.30
2019-05-01T21:19:08.661Z,10.30
2019-05-01T21:21:38.338Z,10.20
2019-05-01T21:24:08.138Z,10.20
2019-05-01T21:26:37.817Z,10.20
2019-05-01T21:29:07.575Z,10.10
2019-05-01T21:31:37.394Z,10.10
2019-05-01T21:34:06.978Z,10.00
2019-05-01T21:36:36.779Z,10.00
2019-05-01T21:39:07.353Z,9.90
2019-05-01T21:41:36.991Z,9.90
2019-05-01T21:44:07.012Z,9.90
2019-05-01T21:46:39.188Z,9.80
2019-05-01T21:49:08.432Z,9.70
2019-05-01T21:51:42.331Z,9.70
2019-05-01T21:54:09.843Z,9.70
2019-05-01T21:56:41.433Z,9.70
2019-05-01T21:59:11.372Z,9.70
2019-05-01T22:01:41.149Z,9.70
2019-05-01T22:04:11.221Z,9.60
2019-05-01T22:06:40.958Z,9.60
2019-05-01T22:09:15.282Z,9.50
2019-05-01T22:11:49.280Z,9.50
2019-05-01T22:14:40.286Z,9.50
2019-05-01T22:17:15.010Z,9.40
2019-05-01T22:20:06.784Z,9.40
2019-05-01T22:22:38.783Z,9.40
2019-05-01T22:25:12.688Z,9.30
2019-05-01T22:27:47.307Z,9.30
2019-05-01T22:30:25.490Z,9.40
2019-05-01T22:32:56.817Z,9.40
2019-05-01T22:35:28.026Z,9.30
2019-05-01T22:37:57.796Z,9.30
2019-05-01T22:40:44.732Z,9.20
2019-05-01T22:43:14.824Z,9.20
2019-05-01T22:45:44.534Z,9.10
2019-05-01T22:48:14.794Z,9.10
2019-05-01T22:50:44.916Z,9.00
2019-05-01T22:53:15.001Z,8.90
2019-05-01T22:55:44.864Z,8.90
2019-05-01T22:58:14.538Z,8.90
2019-05-01T23:00:54.682Z,8.80
2019-05-01T23:03:41.131Z,8.90
2019-05-01T23:06:12.662Z,8.80
2019-05-01T23:08:42.606Z,8.80
2019-05-01T23:11:19.835Z,8.80
2019-05-01T23:13:44.227Z,8.70
2019-05-01T23:16:15.139Z,8.60
2019-05-01T23:18:47.126Z,8.60
2019-05-01T23:21:16.504Z,8.50
2019-05-01T23:23:46.390Z,8.50
2019-05-01T23:26:16.557Z,8.60
2019-05-01T23:28:46.597Z,8.60
2019-05-01T23:31:16.449Z,8.40
2019-05-01T23:33:50.552Z,8.40
2019-05-01T23:36:23.831Z,8.40
2019-05-01T23:38:48.930Z,8.30
2019-05-01T23:41:18.621Z,8.20
2019-05-01T23:43:48.356Z,8.20
2019-05-01T23:46:18.063Z,8.20
2019-05-01T23:48:47.680Z,8.10
2019-05-01T23:51:17.478Z,8.10
2019-05-01T23:53:48.196Z,8.10
2019-05-01T23:56:18.839Z,8.00
2019-05-01T23:58:48.418Z,8.00
